createdAt,value
2023-03-30T00:02:00.658Z,45.40
2023-03-30T00:04:02.757Z,45.40
2023-03-30T00:06:05.548Z,45.40
2023-03-30T00:08:07.382Z,45.40
2023-03-30T00:10:10.250Z,45.40
2023-03-30T00:12:12.667Z,45.40
2023-03-30T00:14:14.616Z,45.40
2023-03-30T00:16:16.620Z,45.40
2023-03-30T00:18:18.469Z,45.40
2023-03-30T00:20:20.951Z,45.40
2023-03-30T00:22:22.781Z,45.40
2023-03-30T00:24:24.656Z,45.40
2023-03-30T00:26:26.592Z,45.40
2023-03-30T00:28:28.349Z,45.40
2023-03-30T00:30:30.277Z,45.40
2023-03-30T00:32:32.161Z,45.30
2023-03-30T00:34:34.019Z,45.40
2023-03-30T00:36:35.879Z,45.40
2023-03-30T00:38:37.778Z,45.50
2023-03-30T00:40:39.640Z,46.00
2023-03-30T00:42:42.301Z,45.30
2023-03-30T00:45:06.303Z,45.30
2023-03-30T00:47:08.405Z,45.30
2023-03-30T00:49:10.881Z,45.30
2023-03-30T00:51:12.824Z,45.40
2023-03-30T00:53:23.901Z,45.40
2023-03-30T00:55:26.769Z,45.40
2023-03-30T00:57:28.882Z,45.30
2023-03-30T00:59:30.868Z,45.30
2023-03-30T01:01:33.161Z,45.30
2023-03-30T01:03:39.053Z,45.30
2023-03-30T01:05:42.223Z,45.30
2023-03-30T01:07:44.603Z,45.40
2023-03-30T01:09:46.511Z,45.30
2023-03-30T01:11:48.430Z,45.40
2023-03-30T01:14:00.716Z,45.40
2023-03-30T01:16:07.130Z,45.50
2023-03-30T01:18:16.042Z,45.40
2023-03-30T01:20:27.054Z,45.40
2023-03-30T01:22:47.526Z,45.40
2023-03-30T01:25:08.025Z,45.40
2023-03-30T01:27:30.845Z,45.40
2023-03-30T01:29:40.468Z,45.40
2023-03-30T01:32:00.819Z,45.60
2023-03-30T01:34:02.824Z,45.40
2023-03-30T01:36:10.674Z,45.30
2023-03-30T01:38:12.545Z,45.40
2023-03-30T01:40:29.805Z,45.30
2023-03-30T01:42:42.118Z,45.30
2023-03-30T01:45:03.215Z,45.50
2023-03-30T01:47:11.039Z,45.30
2023-03-30T01:49:18.633Z,45.30
2023-03-30T01:51:22.561Z,45.30
2023-03-30T01:53:27.118Z,45.30
2023-03-30T01:55:33.803Z,45.40
2023-03-30T01:57:37.785Z,45.40
2023-03-30T02:00:05.725Z,45.40
2023-03-30T02:02:15.274Z,45.40
2023-03-30T02:04:19.181Z,45.30
2023-03-30T02:06:24.568Z,45.30
2023-03-30T02:08:30.026Z,45.30
2023-03-30T02:10:33.222Z,45.30
2023-03-30T02:12:35.837Z,45.30
2023-03-30T02:14:38.967Z,45.30
2023-03-30T02:16:44.218Z,45.30
2023-03-30T02:18:46.192Z,45.20
2023-03-30T02:20:48.469Z,45.30
2023-03-30T02:22:50.459Z,45.30
2023-03-30T02:24:54.034Z,45.30
2023-03-30T02:26:55.921Z,45.40
2023-03-30T02:28:57.969Z,45.30
2023-03-30T02:30:59.718Z,45.10
2023-03-30T02:33:01.930Z,45.10
2023-03-30T02:35:06.524Z,45.00
2023-03-30T02:37:37.698Z,45.00
2023-03-30T02:39:57.951Z,45.00
2023-03-30T02:42:05.713Z,45.00
2023-03-30T02:44:07.498Z,44.90
2023-03-30T02:46:12.372Z,44.90
2023-03-30T02:48:14.313Z,44.90
2023-03-30T02:50:22.163Z,44.80
2023-03-30T02:52:32.816Z,44.80
2023-03-30T02:54:37.863Z,44.80
2023-03-30T02:57:17.364Z,44.80
2023-03-30T02:59:19.554Z,44.80
2023-03-30T03:01:24.386Z,44.80
2023-03-30T03:03:43.682Z,44.80
2023-03-30T03:05:45.791Z,44.70
2023-03-30T03:07:49.523Z,44.70
2023-03-30T03:09:52.376Z,44.70
2023-03-30T03:11:54.567Z,44.80
2023-03-30T03:13:56.749Z,44.90
2023-03-30T03:16:00.265Z,45.00
2023-03-30T03:18:04.733Z,44.90
2023-03-30T03:20:06.810Z,45.00
2023-03-30T03:22:08.604Z,45.00
2023-03-30T03:24:11.749Z,44.90
2023-03-30T03:26:33.820Z,44.90
2023-03-30T03:28:35.598Z,45.00
2023-03-30T03:30:41.610Z,45.00
2023-03-30T03:32:50.166Z,45.00
2023-03-30T03:34:54.430Z,44.90
2023-03-30T03:36:57.640Z,44.90
2023-03-30T03:39:01.964Z,45.00
2023-03-30T03:41:04.619Z,45.00
2023-03-30T03:43:07.289Z,44.90
2023-03-30T03:45:09.402Z,44.90
2023-03-30T03:47:17.313Z,44.90
2023-03-30T03:49:20.759Z,45.00
2023-03-30T03:51:22.630Z,44.90
2023-03-30T03:53:25.718Z,45.10
2023-03-30T03:55:30.436Z,45.10
2023-03-30T03:57:32.306Z,45.60
2023-03-30T03:59:34.095Z,45.00
2023-03-30T04:01:36.035Z,45.10
2023-03-30T04:03:37.909Z,45.20
2023-03-30T04:05:39.976Z,45.10
2023-03-30T04:07:41.806Z,45.10
2023-03-30T04:09:43.907Z,45.30
2023-03-30T04:12:05.962Z,45.40
2023-03-30T04:14:27.646Z,45.30
2023-03-30T04:16:47.515Z,45.40
2023-03-30T04:19:11.813Z,45.50
2023-03-30T04:21:26.551Z,45.30
2023-03-30T04:23:47.242Z,45.30
2023-03-30T04:25:51.965Z,45.30
2023-03-30T04:28:32.874Z,45.30
2023-03-30T04:30:57.484Z,45.30
2023-03-30T04:33:17.856Z,45.30
2023-03-30T04:35:30.836Z,45.20
2023-03-30T04:37:48.245Z,45.20
2023-03-30T04:39:50.086Z,45.30
2023-03-30T04:42:18.513Z,45.30
2023-03-30T04:44:54.086Z,45.30
2023-03-30T04:47:09.978Z,45.30
2023-03-30T04:49:24.153Z,45.20
2023-03-30T04:51:38.313Z,45.20
2023-03-30T04:53:48.198Z,45.30
2023-03-30T04:55:53.005Z,45.20
2023-03-30T04:58:13.784Z,45.20
2023-03-30T05:00:51.153Z,45.20
2023-03-30T05:02:53.376Z,45.30
2023-03-30T05:05:05.098Z,45.30
2023-03-30T05:07:33.345Z,45.20
2023-03-30T05:09:46.719Z,45.20
2023-03-30T05:12:07.456Z,45.40
2023-03-30T05:14:22.646Z,45.50
2023-03-30T05:16:53.762Z,45.50
2023-03-30T05:19:24.810Z,45.40
2023-03-30T05:21:32.807Z,45.50
2023-03-30T05:24:06.918Z,45.50
2023-03-30T05:26:31.978Z,45.40
2023-03-30T05:28:52.587Z,45.40
2023-03-30T05:31:11.060Z,45.30
2023-03-30T05:33:28.158Z,45.40
2023-03-30T05:35:50.903Z,45.30
2023-03-30T05:38:00.223Z,45.40
2023-03-30T05:40:17.093Z,45.30
2023-03-30T05:42:40.605Z,45.30
2023-03-30T05:44:56.035Z,45.40
2023-03-30T05:47:24.370Z,45.30
2023-03-30T05:49:44.966Z,45.30
2023-03-30T05:51:52.776Z,45.30
2023-03-30T05:54:06.016Z,45.30
2023-03-30T05:56:37.247Z,45.40
2023-03-30T05:59:01.693Z,45.30
2023-03-30T06:01:20.137Z,45.40
2023-03-30T06:03:22.900Z,45.30
2023-03-30T06:05:25.592Z,45.20
2023-03-30T06:07:28.433Z,45.30
2023-03-30T06:09:30.802Z,45.40
2023-03-30T06:11:34.865Z,45.30
2023-03-30T06:13:54.595Z,45.40
2023-03-30T06:15:56.497Z,45.50
2023-03-30T06:18:01.310Z,45.40
2023-03-30T06:20:04.833Z,45.40
2023-03-30T06:22:06.718Z,45.40
2023-03-30T06:24:19.885Z,45.50
2023-03-30T06:26:22.886Z,45.50
2023-03-30T06:28:24.897Z,45.50
2023-03-30T06:30:26.854Z,45.40
2023-03-30T06:32:32.274Z,45.40
2023-03-30T06:34:49.502Z,46.00
2023-03-30T06:36:53.029Z,45.50
2023-03-30T06:38:57.345Z,45.50
2023-03-30T06:41:03.440Z,45.40
2023-03-30T06:43:07.253Z,45.40
2023-03-30T06:45:14.906Z,45.50
2023-03-30T06:47:17.033Z,45.40
2023-03-30T06:49:18.835Z,45.40
2023-03-30T06:51:20.703Z,45.40
2023-03-30T06:53:24.307Z,45.50
2023-03-30T06:55:26.348Z,45.50
2023-03-30T06:57:28.271Z,45.50
2023-03-30T06:59:32.536Z,45.50
2023-03-30T07:01:54.435Z,45.40
2023-03-30T07:04:26.807Z,45.50
2023-03-30T07:06:46.368Z,45.50
2023-03-30T07:08:49.045Z,45.50
2023-03-30T07:10:56.110Z,45.50
2023-03-30T07:13:00.360Z,45.60
2023-03-30T07:15:04.085Z,45.50
2023-03-30T07:17:05.996Z,45.50
2023-03-30T07:19:08.142Z,45.60
2023-03-30T07:21:09.980Z,45.60
2023-03-30T07:23:16.109Z,46.00
2023-03-30T07:25:19.489Z,46.20
2023-03-30T07:27:22.860Z,45.90
2023-03-30T07:29:29.027Z,46.40
2023-03-30T07:31:31.789Z,46.50
2023-03-30T07:33:33.802Z,46.60
2023-03-30T07:35:42.883Z,46.60
2023-03-30T07:37:44.752Z,46.70
2023-03-30T07:39:46.610Z,46.70
2023-03-30T07:41:48.504Z,46.50
2023-03-30T07:43:50.371Z,46.50
2023-03-30T07:45:52.372Z,46.50
2023-03-30T07:48:00.606Z,46.40
2023-03-30T07:50:03.539Z,46.00
2023-03-30T07:52:05.620Z,46.70
2023-03-30T07:54:21.050Z,47.40
2023-03-30T07:56:46.252Z,48.40
2023-03-30T07:58:48.170Z,48.80
2023-03-30T08:00:51.601Z,49.10
2023-03-30T08:03:13.617Z,49.80
2023-03-30T08:05:15.600Z,50.00
2023-03-30T08:07:29.917Z,50.30
2023-03-30T08:09:40.064Z,50.40
2023-03-30T08:11:41.939Z,50.30
2023-03-30T08:13:43.998Z,51.00
2023-03-30T08:15:46.669Z,51.50
2023-03-30T08:17:48.599Z,51.40
2023-03-30T08:19:50.471Z,50.70
2023-03-30T08:21:52.287Z,50.80
2023-03-30T08:23:55.165Z,50.60
2023-03-30T08:25:57.933Z,49.20
2023-03-30T08:27:59.696Z,50.10
2023-03-30T08:30:02.318Z,49.90
2023-03-30T08:32:04.224Z,50.30
2023-03-30T08:34:06.121Z,50.20
2023-03-30T08:36:08.092Z,50.00
2023-03-30T08:38:10.138Z,50.40
2023-03-30T08:40:12.891Z,49.80
2023-03-30T08:42:29.957Z,49.90
2023-03-30T08:44:31.730Z,49.80
2023-03-30T08:46:33.728Z,50.60
2023-03-30T08:48:35.870Z,49.60
2023-03-30T08:50:37.828Z,49.90
2023-03-30T08:52:40.363Z,50.10
2023-03-30T08:54:42.146Z,50.10
2023-03-30T08:57:07.262Z,50.10
2023-03-30T08:59:21.484Z,50.60
2023-03-30T09:01:24.844Z,50.40
2023-03-30T09:03:32.684Z,50.20
2023-03-30T09:05:36.182Z,50.10
2023-03-30T09:08:01.005Z,49.40
2023-03-30T09:10:03.426Z,50.50
2023-03-30T09:12:08.410Z,50.40
2023-03-30T09:14:18.827Z,51.00
2023-03-30T09:16:23.018Z,51.10
2023-03-30T09:18:42.090Z,50.70
2023-03-30T09:20:46.107Z,51.40
2023-03-30T09:22:48.630Z,50.60
2023-03-30T09:24:50.445Z,50.60
2023-03-30T09:26:59.852Z,50.40
2023-03-30T09:29:10.728Z,50.00
2023-03-30T09:31:27.918Z,50.40
2023-03-30T09:33:50.002Z,50.80
2023-03-30T09:36:04.113Z,50.30
2023-03-30T09:38:06.071Z,50.00
2023-03-30T09:40:18.746Z,50.20
2023-03-30T09:42:32.557Z,49.80
2023-03-30T09:44:55.469Z,49.60
2023-03-30T09:46:58.282Z,49.60
2023-03-30T09:49:12.038Z,49.90
2023-03-30T09:51:18.339Z,49.60
2023-03-30T09:53:24.848Z,50.20
2023-03-30T09:55:26.738Z,50.30
2023-03-30T09:57:29.910Z,50.20
2023-03-30T09:59:36.885Z,50.40
2023-03-30T10:01:38.880Z,50.10
2023-03-30T10:03:41.997Z,49.40
2023-03-30T10:05:43.998Z,50.20
2023-03-30T10:07:52.622Z,50.40
2023-03-30T10:09:54.943Z,49.80
2023-03-30T10:11:57.158Z,50.10
2023-03-30T10:13:58.974Z,50.50
2023-03-30T10:16:04.834Z,50.50
2023-03-30T10:18:21.636Z,50.50
2023-03-30T10:20:24.965Z,49.90
2023-03-30T10:22:26.902Z,50.30
2023-03-30T10:24:30.140Z,50.20
2023-03-30T10:26:32.157Z,50.20
2023-03-30T10:28:34.021Z,50.20
2023-03-30T10:30:36.227Z,49.90
2023-03-30T10:32:38.231Z,50.00
2023-03-30T10:35:00.312Z,49.90
2023-03-30T10:37:05.251Z,49.70
2023-03-30T10:39:07.054Z,49.40
2023-03-30T10:41:13.845Z,50.60
2023-03-30T10:43:19.843Z,50.50
2023-03-30T10:45:47.976Z,49.90
2023-03-30T10:48:00.316Z,50.20
2023-03-30T10:50:11.660Z,50.40
2023-03-30T10:52:16.615Z,50.70
2023-03-30T10:54:38.705Z,50.30
2023-03-30T10:56:51.724Z,50.70
2023-03-30T10:59:12.282Z,50.50
2023-03-30T11:01:17.134Z,50.90
2023-03-30T11:03:29.483Z,50.60
2023-03-30T11:05:33.697Z,50.80
2023-03-30T11:07:41.205Z,50.30
2023-03-30T11:09:44.112Z,50.90
2023-03-30T11:11:56.353Z,50.40
2023-03-30T11:14:01.039Z,50.70
2023-03-30T11:16:11.937Z,50.60
2023-03-30T11:18:29.452Z,49.30
2023-03-30T11:20:32.841Z,49.90
2023-03-30T11:22:57.830Z,50.50
2023-03-30T11:25:00.333Z,50.20
2023-03-30T11:27:10.813Z,50.30
2023-03-30T11:29:48.028Z,50.60
2023-03-30T11:32:07.740Z,50.00
2023-03-30T11:34:26.846Z,50.00
2023-03-30T11:36:39.642Z,50.20
2023-03-30T11:38:44.368Z,50.30
2023-03-30T11:40:51.907Z,50.40
2023-03-30T11:42:53.839Z,50.10
2023-03-30T11:44:55.947Z,50.30
2023-03-30T11:47:00.601Z,50.30
2023-03-30T11:49:08.695Z,50.30
2023-03-30T11:51:10.482Z,50.00
2023-03-30T11:53:21.429Z,50.00
2023-03-30T11:55:28.014Z,49.70
2023-03-30T11:57:29.902Z,49.70
2023-03-30T11:59:38.542Z,49.70
2023-03-30T12:01:46.098Z,49.70
2023-03-30T12:03:51.172Z,49.90
2023-03-30T12:06:00.289Z,49.80
2023-03-30T12:08:02.269Z,49.90
2023-03-30T12:10:09.001Z,49.30
2023-03-30T12:12:12.472Z,49.70
2023-03-30T12:14:33.164Z,51.10
2023-03-30T12:16:42.259Z,51.80
2023-03-30T12:18:57.770Z,51.80
2023-03-30T12:21:20.165Z,51.40
2023-03-30T12:23:34.558Z,51.60
2023-03-30T12:25:45.577Z,50.80
2023-03-30T12:28:13.839Z,51.30
2023-03-30T12:30:23.758Z,51.50
2023-03-30T12:32:29.511Z,51.60
2023-03-30T12:34:40.460Z,50.60
2023-03-30T12:36:43.061Z,51.50
2023-03-30T12:38:46.306Z,50.50
2023-03-30T12:40:53.557Z,50.20
2023-03-30T12:43:06.585Z,51.00
2023-03-30T12:45:08.388Z,51.30
2023-03-30T12:47:39.603Z,50.90
2023-03-30T12:49:50.357Z,51.20
2023-03-30T12:52:01.282Z,51.40
2023-03-30T12:54:03.152Z,52.00
2023-03-30T12:56:05.340Z,52.20
2023-03-30T12:58:25.562Z,52.20
2023-03-30T13:00:45.995Z,51.60
2023-03-30T13:02:50.763Z,51.50
2023-03-30T13:04:52.903Z,51.40
2023-03-30T13:07:13.103Z,51.80
2023-03-30T13:09:14.915Z,50.60
2023-03-30T13:11:17.803Z,50.20
2023-03-30T13:13:49.917Z,49.70
2023-03-30T13:15:53.185Z,50.30
2023-03-30T13:17:54.942Z,50.60
2023-03-30T13:20:28.039Z,50.70
2023-03-30T13:22:31.810Z,51.30
2023-03-30T13:24:33.647Z,52.90
2023-03-30T13:26:43.963Z,51.80
2023-03-30T13:28:54.648Z,52.20
2023-03-30T13:31:00.412Z,51.00
2023-03-30T13:33:11.138Z,52.10
2023-03-30T13:35:18.578Z,51.00
2023-03-30T13:37:39.153Z,51.40
2023-03-30T13:39:47.070Z,51.70
2023-03-30T13:42:10.041Z,52.70
2023-03-30T13:44:30.338Z,51.20
2023-03-30T13:46:50.600Z,52.10
2023-03-30T13:49:07.715Z,51.30
2023-03-30T13:51:13.128Z,52.00
2023-03-30T13:53:16.456Z,51.90
2023-03-30T13:55:33.785Z,52.10
2023-03-30T13:57:36.868Z,51.80
2023-03-30T13:59:41.849Z,52.70
2023-03-30T14:01:46.654Z,52.60
2023-03-30T14:03:49.510Z,52.10
2023-03-30T14:05:51.369Z,53.40
2023-03-30T14:07:57.396Z,54.10
2023-03-30T14:10:13.025Z,54.70
2023-03-30T14:12:15.194Z,53.90
2023-03-30T14:14:31.306Z,53.80
2023-03-30T14:16:34.800Z,53.20
2023-03-30T14:18:36.812Z,52.30
2023-03-30T14:20:49.667Z,52.90
2023-03-30T14:22:51.633Z,52.20
2023-03-30T14:24:57.390Z,53.40
2023-03-30T14:27:06.794Z,53.00
2023-03-30T14:29:21.049Z,52.90
2023-03-30T14:31:40.582Z,52.90
2023-03-30T14:33:42.472Z,53.10
2023-03-30T14:35:46.011Z,53.60
2023-03-30T14:37:52.161Z,52.60
2023-03-30T14:39:55.718Z,53.20
2023-03-30T14:41:58.782Z,54.00
2023-03-30T14:44:02.144Z,53.80
2023-03-30T14:46:05.769Z,52.30
2023-03-30T14:48:13.315Z,52.20
2023-03-30T14:50:16.687Z,52.30
2023-03-30T14:52:19.689Z,52.80
2023-03-30T14:54:24.565Z,52.00
2023-03-30T14:56:26.780Z,52.60
2023-03-30T14:58:30.507Z,52.50
2023-03-30T15:00:32.425Z,52.80
2023-03-30T15:02:35.396Z,52.50
2023-03-30T15:04:37.686Z,52.70
2023-03-30T15:06:40.249Z,52.30
2023-03-30T15:08:46.038Z,52.50
2023-03-30T15:10:53.289Z,52.20
2023-03-30T15:12:57.034Z,52.20
2023-03-30T15:15:00.977Z,52.20
2023-03-30T15:17:08.975Z,52.00
2023-03-30T15:19:26.464Z,52.20
2023-03-30T15:21:30.104Z,52.20
2023-03-30T15:23:35.730Z,52.00
2023-03-30T15:25:38.605Z,52.00
2023-03-30T15:27:42.289Z,51.80
2023-03-30T15:29:44.257Z,51.20
2023-03-30T15:31:46.138Z,51.20
2023-03-30T15:33:55.345Z,51.10
2023-03-30T15:36:03.753Z,51.50
2023-03-30T15:38:11.430Z,51.10
2023-03-30T15:40:28.686Z,51.30
2023-03-30T15:42:32.123Z,51.10
2023-03-30T15:44:35.234Z,51.00
2023-03-30T15:46:37.556Z,51.10
2023-03-30T15:48:43.843Z,51.00
2023-03-30T15:50:47.413Z,51.00
2023-03-30T15:52:58.753Z,50.90
2023-03-30T15:55:13.148Z,51.40
2023-03-30T15:57:20.984Z,51.50
2023-03-30T15:59:25.374Z,51.10
2023-03-30T16:01:46.100Z,50.70
2023-03-30T16:03:50.643Z,50.70
2023-03-30T16:05:52.471Z,50.00
2023-03-30T16:07:54.542Z,49.90
2023-03-30T16:09:56.414Z,50.30
2023-03-30T16:11:58.443Z,50.50
2023-03-30T16:14:00.320Z,61.20
2023-03-30T16:16:02.871Z,60.80
2023-03-30T16:18:04.843Z,61.50
2023-03-30T16:20:14.916Z,61.80
2023-03-30T16:22:16.724Z,62.60
2023-03-30T16:24:18.599Z,62.60
2023-03-30T16:26:20.652Z,63.50
2023-03-30T16:28:22.512Z,64.00
2023-03-30T16:30:27.516Z,63.80
2023-03-30T16:32:35.396Z,63.90
2023-03-30T16:34:37.617Z,63.50
2023-03-30T16:36:39.466Z,63.10
2023-03-30T16:38:41.405Z,63.60
2023-03-30T16:40:44.216Z,62.70
2023-03-30T16:42:46.036Z,62.80
2023-03-30T16:44:47.870Z,62.90
2023-03-30T16:46:50.256Z,63.00
2023-03-30T16:48:52.085Z,63.40
2023-03-30T16:50:54.382Z,63.90
2023-03-30T16:52:56.184Z,64.10
2023-03-30T16:54:57.976Z,63.70
2023-03-30T16:57:00.679Z,63.90
2023-03-30T16:59:03.410Z,64.30
2023-03-30T17:01:05.463Z,65.10
2023-03-30T17:03:08.014Z,65.10
2023-03-30T17:05:10.309Z,65.60
2023-03-30T17:07:12.177Z,65.40
2023-03-30T17:09:15.373Z,65.10
2023-03-30T17:11:17.404Z,65.40
2023-03-30T17:13:19.401Z,65.60
2023-03-30T17:15:22.040Z,65.50
2023-03-30T17:17:24.336Z,66.70
2023-03-30T17:19:26.168Z,66.60
2023-03-30T17:21:28.074Z,65.80
2023-03-30T17:23:30.725Z,65.70
2023-03-30T17:25:32.573Z,65.80
2023-03-30T17:27:34.353Z,66.20
2023-03-30T17:29:36.196Z,66.00
2023-03-30T17:31:38.218Z,65.90
2023-03-30T17:33:40.160Z,65.90
2023-03-30T17:35:44.311Z,66.20
2023-03-30T17:37:46.188Z,66.60
2023-03-30T17:39:48.081Z,66.50
2023-03-30T17:41:49.901Z,66.80
2023-03-30T17:43:51.722Z,66.60
2023-03-30T17:45:53.603Z,66.60
2023-03-30T17:47:55.528Z,66.60
2023-03-30T17:49:57.313Z,66.80
2023-03-30T17:51:59.124Z,66.90
2023-03-30T17:54:00.970Z,66.90
2023-03-30T17:56:02.909Z,66.80
2023-03-30T17:58:06.408Z,66.80
2023-03-30T18:00:19.278Z,67.10
2023-03-30T18:02:21.184Z,67.30
2023-03-30T18:04:23.015Z,66.90
2023-03-30T18:06:25.024Z,67.00
2023-03-30T18:08:27.491Z,67.10
2023-03-30T18:10:36.901Z,67.40
2023-03-30T18:12:38.701Z,67.60
2023-03-30T18:14:40.538Z,67.50
2023-03-30T18:16:43.673Z,67.60
2023-03-30T18:18:45.795Z,68.00
2023-03-30T18:20:47.668Z,67.90
2023-03-30T18:22:49.987Z,67.60
2023-03-30T18:24:52.010Z,67.90
2023-03-30T18:26:53.852Z,68.20
2023-03-30T18:28:55.661Z,68.40
2023-03-30T18:30:57.726Z,68.40
2023-03-30T18:32:59.834Z,68.70
2023-03-30T18:35:01.657Z,68.70
2023-03-30T18:37:03.471Z,68.40
2023-03-30T18:39:05.434Z,68.80
2023-03-30T18:41:09.678Z,69.00
2023-03-30T18:43:12.081Z,69.10
2023-03-30T18:45:18.525Z,69.20
2023-03-30T18:47:20.416Z,69.20
2023-03-30T18:49:22.268Z,69.60
2023-03-30T18:51:24.092Z,69.90
2023-03-30T18:53:27.248Z,70.00
2023-03-30T18:55:29.984Z,70.40
2023-03-30T18:57:31.837Z,70.40
2023-03-30T18:59:33.691Z,70.70
2023-03-30T19:01:35.585Z,71.10
2023-03-30T19:03:37.440Z,71.20
2023-03-30T19:05:39.505Z,71.80
2023-03-30T19:07:41.593Z,72.30
2023-03-30T19:09:43.654Z,72.70
2023-03-30T19:11:45.819Z,73.10
2023-03-30T19:13:47.617Z,73.20
2023-03-30T19:15:50.270Z,73.20
2023-03-30T19:17:52.178Z,73.60
2023-03-30T19:19:54.037Z,73.40
2023-03-30T19:21:56.052Z,73.40
2023-03-30T19:23:57.851Z,72.50
2023-03-30T19:25:59.772Z,71.60
2023-03-30T19:28:03.758Z,71.60
2023-03-30T19:30:06.678Z,71.70
2023-03-30T19:32:08.606Z,71.60
2023-03-30T19:34:10.493Z,71.00
2023-03-30T19:36:12.319Z,69.40
2023-03-30T19:38:14.572Z,68.40
2023-03-30T19:40:17.066Z,67.20
2023-03-30T19:42:18.973Z,66.90
2023-03-30T19:44:20.826Z,66.60
2023-03-30T19:46:22.699Z,65.80
2023-03-30T19:48:24.497Z,65.80
2023-03-30T19:50:27.975Z,65.60
2023-03-30T19:52:31.412Z,65.20
2023-03-30T19:54:33.263Z,65.30
2023-03-30T19:56:35.084Z,65.40
2023-03-30T19:58:37.334Z,65.40
2023-03-30T20:00:39.365Z,65.60
2023-03-30T20:02:41.918Z,65.90
2023-03-30T20:04:44.269Z,67.50
2023-03-30T20:06:46.103Z,67.60
2023-03-30T20:08:47.973Z,67.10
2023-03-30T20:10:49.842Z,66.90
2023-03-30T20:12:52.268Z,67.00
2023-03-30T20:14:54.108Z,67.20
2023-03-30T20:16:55.900Z,67.40
2023-03-30T20:18:57.726Z,67.40
2023-03-30T20:21:02.601Z,67.40
2023-03-30T20:23:04.724Z,67.60
2023-03-30T20:25:07.878Z,68.00
2023-03-30T20:27:09.760Z,68.40
2023-03-30T20:29:11.608Z,69.10
2023-03-30T20:31:13.489Z,69.10
2023-03-30T20:33:15.307Z,69.70
2023-03-30T20:35:17.400Z,70.00
2023-03-30T20:37:19.380Z,70.40
2023-03-30T20:39:21.164Z,69.70
2023-03-30T20:41:22.951Z,69.40
2023-03-30T20:43:25.663Z,69.50
2023-03-30T20:45:27.937Z,69.60
2023-03-30T20:47:29.728Z,70.30
2023-03-30T20:49:31.753Z,69.70
2023-03-30T20:51:34.200Z,69.50
2023-03-30T20:53:38.799Z,69.60
2023-03-30T20:55:53.100Z,69.70
2023-03-30T20:57:54.924Z,49.70
2023-03-30T20:59:56.688Z,49.60
2023-03-30T21:01:58.462Z,49.60
2023-03-30T21:04:01.310Z,49.60
2023-03-30T21:06:04.761Z,49.60
2023-03-30T21:08:06.847Z,49.60
2023-03-30T21:10:08.723Z,49.60
2023-03-30T21:12:10.518Z,49.50
2023-03-30T21:14:13.504Z,49.60
2023-03-30T21:16:15.351Z,49.60
2023-03-30T21:18:17.208Z,49.50
2023-03-30T21:20:19.006Z,49.60
2023-03-30T21:22:20.892Z,49.50
2023-03-30T21:24:22.775Z,49.50
2023-03-30T21:26:24.567Z,49.50
2023-03-30T21:28:26.591Z,49.50
2023-03-30T21:30:28.374Z,49.50
2023-03-30T21:32:31.595Z,49.50
2023-03-30T21:34:33.519Z,49.50
2023-03-30T21:36:35.417Z,49.50
2023-03-30T21:38:37.398Z,49.50
2023-03-30T21:40:39.189Z,49.50
2023-03-30T21:42:41.082Z,49.50
2023-03-30T21:44:42.909Z,49.50
2023-03-30T21:46:44.729Z,49.50
2023-03-30T21:48:47.349Z,49.50
2023-03-30T21:50:49.289Z,49.50
2023-03-30T21:52:56.583Z,49.50
2023-03-30T21:54:58.370Z,49.50
2023-03-30T21:57:00.274Z,49.50
2023-03-30T21:59:02.910Z,49.60
2023-03-30T22:01:11.807Z,49.40
2023-03-30T22:03:15.212Z,51.30
2023-03-30T22:07:19.272Z,49.00
2023-03-30T22:09:21.140Z,49.50
2023-03-30T22:11:24.750Z,49.50
2023-03-30T22:13:26.971Z,49.50
2023-03-30T22:15:28.892Z,49.50
2023-03-30T22:17:30.810Z,49.50
2023-03-30T22:19:32.571Z,49.50
2023-03-30T22:21:34.827Z,49.60
2023-03-30T22:23:36.826Z,49.60
2023-03-30T22:25:38.686Z,49.50
2023-03-30T22:27:40.479Z,49.50
2023-03-30T22:29:42.283Z,49.70
2023-03-30T22:31:44.324Z,49.50
2023-03-30T22:33:46.446Z,49.70
2023-03-30T22:35:48.414Z,49.50
2023-03-30T22:37:50.290Z,49.60
2023-03-30T22:39:52.131Z,49.50
2023-03-30T22:41:53.990Z,49.50
2023-03-30T22:43:56.756Z,49.70
2023-03-30T22:45:59.156Z,49.60
2023-03-30T22:48:00.988Z,49.60
2023-03-30T22:50:02.913Z,49.50
2023-03-30T22:52:04.883Z,49.70
2023-03-30T22:54:06.671Z,49.80
2023-03-30T22:56:08.653Z,49.60
2023-03-30T22:58:10.557Z,49.50
2023-03-30T23:00:12.955Z,49.60
2023-03-30T23:02:14.765Z,49.50
2023-03-30T23:04:16.916Z,49.80
2023-03-30T23:06:18.731Z,49.60
2023-03-30T23:08:20.674Z,49.50
2023-03-30T23:10:22.457Z,49.60
2023-03-30T23:12:24.764Z,49.60
2023-03-30T23:14:26.609Z,49.70
2023-03-30T23:16:28.485Z,49.80
2023-03-30T23:18:30.405Z,49.60
2023-03-30T23:20:32.160Z,49.90
2023-03-30T23:22:33.980Z,49.60
2023-03-30T23:24:35.950Z,49.70
2023-03-30T23:26:37.781Z,49.70
2023-03-30T23:28:40.748Z,49.60
2023-03-30T23:30:42.602Z,49.90
2023-03-30T23:32:44.492Z,49.80
2023-03-30T23:34:46.431Z,49.80
2023-03-30T23:36:48.243Z,49.60
2023-03-30T23:38:50.472Z,49.70
2023-03-30T23:40:56.304Z,49.70
2023-03-30T23:42:58.104Z,49.70
2023-03-30T23:45:00.039Z,49.50
2023-03-30T23:47:02.868Z,49.70
2023-03-30T23:49:04.856Z,49.60
2023-03-30T23:51:06.675Z,49.80
2023-03-30T23:53:08.462Z,49.70
2023-03-30T23:55:10.291Z,49.70
2023-03-30T23:57:12.136Z,49.80
2023-03-30T23:59:14.021Z,50.20
